Time;durP1;ratioP1;P1;durP2;ratioP2;P2;SDS_P1;SDS_P2;PMS_P1;PMS_P2;Temp;Humidity;BMP_temperature;BMP_pressure;BME280_temperature;BME280_humidity;BME280_pressure;Samples;Min_cycle;Max_cycle;Signal;HPM_P1;HPM_P2
2022/10/10 00:02:11;;;;;;;9.20;5.03;;;8.30;83.50;;;;;;5094077;28;20024;-38
2022/10/10 00:04:37;;;;;;;9.80;5.13;;;8.30;83.50;;;;;;5094045;28;20061;-38
2022/10/10 00:07:03;;;;;;;12.80;4.32;;;8.30;83.50;;;;;;5094084;28;20357;-39
2022/10/10 00:09:29;;;;;;;10.95;4.57;;;8.20;83.60;;;;;;5094059;28;20127;-39
2022/10/10 00:11:55;;;;;;;7.32;3.88;;;8.20;83.70;;;;;;5094337;28;20082;-39
2022/10/10 00:14:21;;;;;;;12.70;5.93;;;8.20;83.70;;;;;;5075978;28;20024;-40
2022/10/10 00:16:46;;;;;;;7.90;5.10;;;8.20;83.70;;;;;;5075490;28;20032;-39
2022/10/10 00:19:12;;;;;;;9.75;5.70;;;8.20;83.70;;;;;;5093366;28;20031;-40
2022/10/10 00:21:38;;;;;;;10.57;4.75;;;8.10;83.80;;;;;;5093710;28;20032;-38
2022/10/10 00:24:03;;;;;;;7.18;4.40;;;8.10;83.90;;;;;;5093906;28;20528;-38
2022/10/10 00:26:29;;;;;;;8.50;5.25;;;8.10;84.00;;;;;;5093858;28;20073;-38
2022/10/10 00:28:55;;;;;;;6.38;4.25;;;8.00;84.20;;;;;;5093479;28;20024;-38
2022/10/10 00:31:21;;;;;;;12.80;5.07;;;8.00;84.40;;;;;;5093772;28;20027;-38
2022/10/10 00:33:46;;;;;;;10.65;4.50;;;7.90;84.40;;;;;;5093513;28;20464;-38
2022/10/10 00:36:14;;;;;;;9.95;4.43;;;7.90;84.60;;;;;;5093769;28;20099;-39
2022/10/10 00:38:39;;;;;;;13.63;5.70;;;7.90;84.70;;;;;;5093486;28;20031;-39
2022/10/10 00:41:06;;;;;;;7.78;4.68;;;7.80;84.80;;;;;;5093552;28;20020;-39
2022/10/10 00:43:32;;;;;;;13.95;5.03;;;7.80;84.80;;;;;;5075283;28;20361;-39
2022/10/10 00:45:58;;;;;;;6.30;4.60;;;7.80;84.90;;;;;;5093311;28;20055;-39
2022/10/10 00:48:27;;;;;;;12.07;4.30;;;7.80;85.00;;;;;;5093293;28;20023;-39
2022/10/10 00:51:10;;;;;;;11.32;4.45;;;7.80;85.20;;;;;;5093222;28;20027;-39
2022/10/10 00:53:54;;;;;;;16.48;7.25;;;7.80;85.10;;;;;;5093694;28;20028;-39
2022/10/10 00:56:24;;;;;;;8.27;5.00;;;7.80;85.20;;;;;;5094508;28;20023;-39
2022/10/10 00:58:53;;;;;;;8.80;4.18;;;7.70;85.10;;;;;;5075889;28;20078;-40
2022/10/10 01:01:19;;;;;;;6.07;3.92;;;7.70;85.30;;;;;;5094437;28;20533;-39
2022/10/10 01:03:45;;;;;;;7.55;4.22;;;7.70;85.50;;;;;;5093689;28;20028;-39
2022/10/10 01:06:11;;;;;;;7.80;4.10;;;7.70;85.50;;;;;;5093865;28;20024;-39
2022/10/10 01:08:36;;;;;;;8.10;4.47;;;7.60;85.60;;;;;;5094711;28;20045;-39
2022/10/10 01:11:11;;;;;;;7.63;4.50;;;7.60;85.60;;;;;;5076825;28;20016;-39
2022/10/10 01:13:54;;;;;;;9.32;5.13;;;7.60;85.70;;;;;;5076522;28;20027;-39
2022/10/10 01:16:47;;;;;;;5.95;4.55;;;7.50;85.70;;;;;;5094783;28;20073;-39
2022/10/10 01:19:43;;;;;;;7.10;4.25;;;7.50;85.80;;;;;;5094723;28;20032;-39
2022/10/10 01:22:23;;;;;;;9.02;4.90;;;7.50;86.00;;;;;;5094876;28;20024;-40
2022/10/10 01:25:15;;;;;;;6.72;4.40;;;7.40;86.00;;;;;;5076221;28;20026;-40
2022/10/10 01:27:50;;;;;;;7.60;4.68;;;7.30;86.10;;;;;;5092465;28;20500;-39
2022/10/10 01:30:22;;;;;;;9.30;4.90;;;7.30;86.30;;;;;;5094845;28;20111;-40
2022/10/10 01:33:14;;;;;;;5.82;3.85;;;7.30;86.30;;;;;;5097308;28;20031;-38
2022/10/10 01:36:10;;;;;;;7.35;4.45;;;7.30;86.40;;;;;;5097074;28;20483;-40
2022/10/10 01:38:39;;;;;;;8.25;3.88;;;7.30;86.50;;;;;;5097215;28;20035;-39
2022/10/10 01:41:20;;;;;;;6.68;3.38;;;7.30;86.40;;;;;;5078836;28;20141;-38
2022/10/10 01:43:56;;;;;;;7.32;4.43;;;7.30;86.40;;;;;;5097131;28;20024;-37
2022/10/10 01:46:22;;;;;;;5.78;4.20;;;7.20;86.50;;;;;;5078738;28;20032;-38
2022/10/10 01:48:51;;;;;;;8.20;4.47;;;7.20;86.60;;;;;;5096477;28;20039;-37
2022/10/10 01:51:37;;;;;;;11.27;5.32;;;7.10;86.60;;;;;;5096602;28;20101;-39
2022/10/10 01:54:40;;;;;;;8.85;4.53;;;7.10;86.50;;;;;;5096514;28;20086;-39
2022/10/10 01:57:21;;;;;;;6.32;3.42;;;7.10;86.70;;;;;;5096666;28;20020;-37
2022/10/10 01:59:49;;;;;;;5.72;3.58;;;7.10;86.70;;;;;;5096729;28;20035;-38
2022/10/10 02:02:27;;;;;;;8.93;4.25;;;7.10;86.60;;;;;;5096301;28;20032;-38
2022/10/10 02:05:19;;;;;;;6.20;3.80;;;7.00;86.70;;;;;;5096645;28;20115;-39
2022/10/10 02:07:47;;;;;;;6.40;3.53;;;7.00;86.80;;;;;;5091333;28;20058;-39
2022/10/10 02:10:18;;;;;;;7.35;3.60;;;7.00;86.80;;;;;;5096125;28;20031;-38
2022/10/10 02:12:46;;;;;;;6.30;3.28;;;7.00;87.00;;;;;;5096094;28;20032;-38
2022/10/10 02:15:15;;;;;;;4.68;3.40;;;7.00;87.10;;;;;;5096009;28;20032;-39
2022/10/10 02:17:44;;;;;;;8.38;3.35;;;7.00;87.00;;;;;;5078040;28;20028;-38
2022/10/10 02:20:12;;;;;;;5.28;3.70;;;7.10;87.00;;;;;;5095952;28;20020;-38
2022/10/10 02:22:40;;;;;;;6.07;3.75;;;7.10;87.10;;;;;;5096138;28;20138;-38
2022/10/10 02:25:06;;;;;;;7.47;3.92;;;7.10;86.90;;;;;;5078067;28;20024;-39
2022/10/10 02:27:58;;;;;;;5.97;4.43;;;7.10;86.90;;;;;;5095618;28;20020;-39
2022/10/10 02:30:24;;;;;;;5.20;3.75;;;7.10;86.90;;;;;;5084635;28;20120;-38
2022/10/10 02:32:59;;;;;;;4.45;3.47;;;7.10;87.00;;;;;;5095648;28;20055;-38
2022/10/10 02:35:30;;;;;;;6.15;3.58;;;7.00;86.90;;;;;;5077418;28;20428;-39
2022/10/10 02:37:58;;;;;;;7.20;4.43;;;7.10;87.00;;;;;;5095673;28;20111;-39
2022/10/10 02:40:27;;;;;;;6.07;4.38;;;7.10;87.10;;;;;;5077411;28;20024;-39
2022/10/10 02:42:56;;;;;;;8.35;3.80;;;7.10;87.10;;;;;;5095742;28;20130;-39
2022/10/10 02:45:22;;;;;;;4.32;3.70;;;7.10;86.90;;;;;;5095498;28;20476;-39
2022/10/10 02:47:49;;;;;;;6.82;4.00;;;7.10;87.00;;;;;;5095322;28;20035;-39
2022/10/10 02:50:15;;;;;;;9.88;4.05;;;7.10;87.10;;;;;;5095569;28;20027;-39
2022/10/10 02:52:40;;;;;;;5.15;3.40;;;7.10;87.00;;;;;;5095493;28;20024;-39
2022/10/10 02:55:06;;;;;;;5.07;3.45;;;7.10;86.90;;;;;;5095618;28;20476;-37
2022/10/10 02:57:32;;;;;;;9.15;4.30;;;7.10;86.90;;;;;;5095352;28;20100;-39
2022/10/10 02:59:57;;;;;;;6.78;3.67;;;7.10;87.00;;;;;;5095355;28;20055;-39
2022/10/10 03:02:23;;;;;;;4.82;3.35;;;7.10;87.00;;;;;;5095422;28;20069;-38
2022/10/10 03:04:49;;;;;;;14.05;3.78;;;7.00;87.10;;;;;;5095144;28;20032;-38
2022/10/10 03:07:14;;;;;;;6.97;3.58;;;7.00;87.10;;;;;;5095864;28;20020;-38
2022/10/10 03:09:40;;;;;;;6.45;3.47;;;7.10;87.20;;;;;;5095042;28;20078;-39
2022/10/10 03:12:05;;;;;;;4.35;3.63;;;7.10;87.10;;;;;;5095001;28;20042;-39
2022/10/10 03:14:31;;;;;;;9.50;3.35;;;7.10;87.10;;;;;;5095236;28;20107;-39
2022/10/10 03:16:57;;;;;;;7.25;3.50;;;7.10;87.00;;;;;;5095175;28;20050;-38
2022/10/10 03:19:23;;;;;;;4.80;3.38;;;7.10;87.10;;;;;;5095114;28;20032;-38
2022/10/10 03:21:48;;;;;;;5.85;3.50;;;7.20;87.00;;;;;;5076575;28;20111;-38
2022/10/10 03:24:14;;;;;;;6.55;4.18;;;7.20;87.00;;;;;;5095133;28;20422;-39
2022/10/10 03:26:40;;;;;;;7.45;4.05;;;7.20;87.00;;;;;;5094995;28;20032;-40
2022/10/10 03:29:05;;;;;;;9.20;3.60;;;7.20;87.00;;;;;;5094691;28;20035;-39
2022/10/10 03:31:31;;;;;;;5.05;3.80;;;7.20;87.10;;;;;;5094866;28;20441;-38
2022/10/10 03:33:57;;;;;;;6.38;4.05;;;7.10;87.10;;;;;;5094856;28;20058;-37
2022/10/10 03:36:23;;;;;;;8.18;4.28;;;7.20;87.10;;;;;;5094556;28;20027;-37
2022/10/10 03:38:49;;;;;;;7.65;4.10;;;7.20;87.10;;;;;;5094394;28;20028;-37
2022/10/10 03:41:14;;;;;;;9.98;3.42;;;7.20;87.10;;;;;;5094529;28;20020;-37
2022/10/10 03:43:40;;;;;;;8.80;3.92;;;7.20;87.10;;;;;;5094667;28;20035;-38
2022/10/10 03:46:06;;;;;;;10.55;3.83;;;7.20;87.10;;;;;;5094578;28;20031;-37
2022/10/10 03:48:31;;;;;;;6.43;3.90;;;7.20;87.20;;;;;;5059362;28;20024;-38
2022/10/10 03:50:57;;;;;;;4.70;3.50;;;7.20;87.30;;;;;;5094206;28;20105;-40
2022/10/10 03:53:23;;;;;;;7.63;4.13;;;7.20;87.30;;;;;;5093635;28;20066;-39
2022/10/10 03:55:48;;;;;;;9.95;4.30;;;7.20;87.30;;;;;;5094203;28;20021;-38
2022/10/10 03:58:14;;;;;;;7.25;3.90;;;7.30;87.40;;;;;;5094376;28;20524;-39
2022/10/10 04:00:39;;;;;;;7.47;3.88;;;7.30;87.30;;;;;;5094093;28;20067;-38
2022/10/10 04:03:06;;;;;;;7.45;4.35;;;7.30;87.30;;;;;;5094504;28;20123;-40
2022/10/10 04:05:37;;;;;;;8.43;4.57;;;7.20;87.30;;;;;;5075621;28;20063;-40
2022/10/10 04:08:04;;;;;;;7.80;4.28;;;7.30;87.30;;;;;;5093817;28;21999;-37
2022/10/10 04:10:30;;;;;;;10.25;4.47;;;7.20;87.30;;;;;;5094059;28;20448;-37
2022/10/10 04:12:55;;;;;;;6.15;4.65;;;7.30;87.40;;;;;;5093919;28;20028;-38
2022/10/10 04:15:21;;;;;;;5.88;4.00;;;7.20;87.40;;;;;;5093933;28;20020;-39
2022/10/10 04:17:46;;;;;;;8.30;4.10;;;7.20;87.40;;;;;;5093911;28;20369;-38
2022/10/10 04:20:12;;;;;;;10.82;4.55;;;7.30;87.50;;;;;;5075415;28;20028;-38
2022/10/10 04:22:38;;;;;;;6.65;3.47;;;7.30;87.60;;;;;;5093623;28;20476;-38
2022/10/10 04:25:04;;;;;;;8.27;3.95;;;7.30;87.60;;;;;;5094062;28;20031;-38
2022/10/10 04:27:30;;;;;;;5.50;3.88;;;7.30;87.50;;;;;;5093802;28;20030;-38
2022/10/10 04:29:55;;;;;;;7.95;3.65;;;7.30;87.60;;;;;;5093750;28;20434;-38
2022/10/10 04:32:21;;;;;;;5.95;3.97;;;7.30;87.50;;;;;;5093674;28;20107;-38
2022/10/10 04:34:46;;;;;;;6.55;3.47;;;7.30;87.50;;;;;;5093696;28;20024;-38
2022/10/10 04:37:12;;;;;;;7.82;4.30;;;7.30;87.60;;;;;;5093570;28;20134;-38
2022/10/10 04:39:38;;;;;;;9.80;4.10;;;7.20;87.60;;;;;;5093750;28;20085;-38
2022/10/10 04:42:04;;;;;;;5.13;3.70;;;7.20;87.70;;;;;;5093361;28;20107;-39
2022/10/10 04:44:29;;;;;;;8.95;4.78;;;7.20;87.90;;;;;;5093163;28;20035;-38
2022/10/10 04:46:55;;;;;;;6.47;4.35;;;7.30;88.00;;;;;;5093270;28;20028;-38
2022/10/10 04:49:20;;;;;;;9.82;4.32;;;7.30;88.00;;;;;;5093437;28;20095;-38
2022/10/10 04:51:47;;;;;;;7.95;3.83;;;7.30;88.10;;;;;;5093579;28;20174;-40
2022/10/10 04:54:12;;;;;;;8.18;4.13;;;7.30;88.10;;;;;;5075129;28;20115;-39
2022/10/10 04:56:41;;;;;;;5.45;4.05;;;7.30;88.00;;;;;;5075017;28;20497;-37
2022/10/10 04:59:07;;;;;;;7.68;4.00;;;7.40;88.00;;;;;;5093267;28;20042;-37
2022/10/10 05:01:33;;;;;;;8.40;4.38;;;7.50;88.00;;;;;;5093042;28;20063;-38
2022/10/10 05:03:59;;;;;;;7.20;3.72;;;7.50;87.90;;;;;;5092935;28;20028;-37
2022/10/10 05:06:24;;;;;;;13.30;6.25;;;7.40;87.70;;;;;;5093185;28;20024;-38
2022/10/10 05:08:50;;;;;;;8.90;5.30;;;7.40;87.70;;;;;;5092633;28;20051;-40
2022/10/10 05:11:16;;;;;;;10.63;4.55;;;7.30;87.80;;;;;;5093155;28;20027;-39
2022/10/10 05:13:41;;;;;;;7.63;3.92;;;7.40;88.00;;;;;;5092994;28;20512;-39
2022/10/10 05:16:07;;;;;;;16.73;5.03;;;7.30;88.00;;;;;;5093019;28;20034;-40
2022/10/10 05:18:36;;;;;;;9.30;4.78;;;7.30;88.10;;;;;;5093348;28;20041;-40
2022/10/10 05:21:02;;;;;;;7.63;4.25;;;7.30;88.20;;;;;;5092908;28;20024;-39
2022/10/10 05:23:27;;;;;;;9.20;4.18;;;7.30;88.20;;;;;;5093072;28;20046;-39
2022/10/10 05:25:53;;;;;;;15.40;5.15;;;7.30;88.40;;;;;;5092863;28;20528;-37
2022/10/10 05:28:18;;;;;;;7.22;4.93;;;7.30;88.40;;;;;;5092823;28;20141;-40
2022/10/10 16:56:56;;;;;;;19.25;6.43;;;14.90;84.80;;;;;;5129726;27;20390;-39
2022/10/10 16:59:22;;;;;;;10.60;5.97;;;15.00;84.80;;;;;;5097159;28;20058;-39
2022/10/10 17:01:47;;;;;;;13.80;5.90;;;15.10;84.20;;;;;;5094726;28;20032;-38
2022/10/10 17:04:13;;;;;;;9.07;6.97;;;15.20;83.90;;;;;;5094103;28;20028;-38
2022/10/10 17:06:39;;;;;;;14.18;7.20;;;15.20;83.80;;;;;;5094955;28;20036;-40
2022/10/10 17:09:08;;;;;;;13.40;6.97;;;15.20;84.00;;;;;;5095037;28;20063;-38
2022/10/10 17:11:34;;;;;;;7.40;4.05;;;15.10;84.60;;;;;;5093613;28;20024;-38
2022/10/10 17:14:00;;;;;;;4.78;2.80;;;14.80;83.80;;;;;;5090576;28;20417;-38
2022/10/10 17:16:28;;;;;;;2.42;2.13;;;14.20;83.90;;;;;;5090806;28;20024;-39
2022/10/10 17:18:54;;;;;;;3.67;2.08;;;14.00;85.00;;;;;;5090606;28;20016;-39
2022/10/10 17:21:23;;;;;;;2.33;1.80;;;13.80;85.50;;;;;;5090574;28;20051;-39
2022/10/10 17:23:49;;;;;;;3.03;2.33;;;13.80;86.20;;;;;;5088717;28;20098;-41
2022/10/10 17:26:21;;;;;;;1.77;1.67;;;13.70;86.40;;;;;;5089117;28;20024;-39
2022/10/10 17:28:49;;;;;;;6.07;2.42;;;13.70;87.00;;;;;;5089963;28;20078;-38
2022/10/10 17:31:16;;;;;;;4.30;2.63;;;13.70;87.20;;;;;;5090158;28;20024;-38
2022/10/10 17:33:44;;;;;;;5.57;3.08;;;13.70;87.50;;;;;;5090275;28;20028;-38
2022/10/10 17:36:15;;;;;;;5.80;3.08;;;13.70;87.50;;;;;;5090508;28;20380;-39
2022/10/10 17:38:41;;;;;;;4.10;2.53;;;13.50;86.70;;;;;;5090570;28;20443;-40
2022/10/10 17:41:07;;;;;;;7.85;2.28;;;13.50;87.10;;;;;;5089760;28;20499;-39
2022/10/10 17:43:34;;;;;;;6.20;1.70;;;13.50;86.40;;;;;;5089961;28;20024;-39
2022/10/10 17:46:09;;;;;;;7.20;2.92;;;13.50;86.10;;;;;;5090180;28;20361;-38
2022/10/10 17:48:39;;;;;;;7.18;2.40;;;13.50;85.70;;;;;;5088669;28;20048;-40
2022/10/10 17:51:07;;;;;;;11.02;3.83;;;13.60;85.20;;;;;;5090305;28;20073;-38
2022/10/10 17:53:33;;;;;;;5.03;2.35;;;13.60;84.90;;;;;;5090005;28;20040;-40
2022/10/10 17:55:59;;;;;;;8.75;2.20;;;13.60;84.70;;;;;;5090326;28;20137;-40
2022/10/10 17:58:25;;;;;;;9.38;2.40;;;13.60;84.20;;;;;;5090015;28;20042;-38
2022/10/10 18:00:57;;;;;;;13.25;2.20;;;13.60;83.90;;;;;;5090411;28;20032;-39
2022/10/10 18:03:23;;;;;;;8.57;2.65;;;13.60;83.60;;;;;;5088895;28;20054;-38
2022/10/10 18:05:49;;;;;;;11.65;1.67;;;13.60;83.50;;;;;;5090045;28;20380;-39
2022/10/10 18:08:14;;;;;;;6.80;1.70;;;13.60;83.50;;;;;;5076988;28;20112;-39
2022/10/10 18:10:41;;;;;;;7.55;2.15;;;13.60;83.30;;;;;;5076550;28;20465;-38
2022/10/10 18:13:07;;;;;;;10.48;3.15;;;13.40;83.40;;;;;;5076795;28;20027;-40
2022/10/10 18:15:32;;;;;;;7.15;2.63;;;13.30;83.60;;;;;;5076029;28;20024;-49
2022/10/10 18:17:58;;;;;;;8.75;1.80;;;13.30;83.80;;;;;;5076009;28;20020;-47
2022/10/10 18:20:24;;;;;;;12.43;2.38;;;13.30;83.70;;;;;;5074439;28;20024;-46
2022/10/10 18:22:52;;;;;;;7.70;3.55;;;13.30;84.00;;;;;;5076455;28;20142;-50
2022/10/10 18:25:18;;;;;;;9.57;2.50;;;13.20;84.20;;;;;;5075607;28;20035;-48
2022/10/10 18:27:44;;;;;;;12.13;2.72;;;13.20;84.00;;;;;;5075699;28;20087;-47
2022/10/10 18:30:10;;;;;;;17.52;3.30;;;13.20;84.00;;;;;;5076676;28;20389;-49
2022/10/10 18:32:36;;;;;;;12.68;3.95;;;13.20;83.90;;;;;;5076397;28;20063;-50
2022/10/10 18:35:01;;;;;;;8.05;2.40;;;13.20;83.40;;;;;;5075795;28;20090;-47
2022/10/10 18:37:27;;;;;;;12.70;2.75;;;13.30;83.10;;;;;;5074071;28;20028;-48
2022/10/10 18:39:53;;;;;;;11.35;1.88;;;13.30;83.10;;;;;;5075554;28;20411;-49
2022/10/10 18:42:18;;;;;;;14.25;2.63;;;13.30;82.80;;;;;;5075638;28;20021;-47
2022/10/10 18:44:44;;;;;;;8.18;2.70;;;13.20;83.10;;;;;;5075318;28;20444;-49
2022/10/10 18:47:10;;;;;;;9.43;1.75;;;13.20;83.20;;;;;;5075655;28;20025;-47
2022/10/10 18:49:35;;;;;;;10.20;2.75;;;13.10;83.30;;;;;;5075368;28;20070;-48
2022/10/10 18:52:01;;;;;;;15.85;2.00;;;12.90;83.20;;;;;;5074418;28;20032;-48
2022/10/10 18:54:29;;;;;;;14.98;3.00;;;12.80;83.00;;;;;;5075210;28;20038;-48
2022/10/10 18:56:55;;;;;;;12.00;3.60;;;12.80;83.20;;;;;;5075197;28;20040;-48
2022/10/10 18:59:21;;;;;;;10.32;2.15;;;12.70;83.50;;;;;;5075322;28;20078;-48
2022/10/10 19:01:49;;;;;;;13.00;4.03;;;12.50;84.10;;;;;;5075573;28;20020;-48
2022/10/10 19:04:15;;;;;;;13.27;3.17;;;12.50;84.20;;;;;;5075109;28;20477;-47
2022/10/10 19:06:42;;;;;;;9.23;2.78;;;12.40;85.10;;;;;;5074756;28;20109;-48
2022/10/10 19:09:10;;;;;;;6.15;1.90;;;12.30;85.40;;;;;;5075414;28;20024;-48
2022/10/10 19:11:38;;;;;;;9.13;2.05;;;12.30;85.40;;;;;;5073994;28;20044;-49
2022/10/10 19:14:08;;;;;;;12.25;2.15;;;12.20;85.60;;;;;;5075038;28;20056;-48
2022/10/10 19:16:34;;;;;;;10.43;2.15;;;12.10;85.80;;;;;;5075382;28;20025;-49
2022/10/10 19:19:00;;;;;;;14.63;2.92;;;12.10;85.90;;;;;;5074343;28;20035;-48
2022/10/10 19:21:28;;;;;;;9.98;1.70;;;12.00;86.10;;;;;;5079718;28;20031;-48
2022/10/10 19:23:54;;;;;;;20.13;4.25;;;11.90;86.50;;;;;;5078559;28;20021;-48
2022/10/10 19:26:20;;;;;;;9.65;2.38;;;11.90;86.40;;;;;;5073589;28;20534;-49
2022/10/10 19:28:46;;;;;;;10.98;2.25;;;11.80;86.70;;;;;;5074755;28;20064;-48
2022/10/10 19:31:15;;;;;;;9.52;2.95;;;11.80;86.90;;;;;;5074553;28;20024;-49
2022/10/10 19:33:43;;;;;;;10.07;1.95;;;11.70;87.10;;;;;;5074922;28;20024;-49
2022/10/10 19:36:10;;;;;;;5.47;1.73;;;11.60;87.20;;;;;;5074567;28;20028;-49
2022/10/10 19:38:38;;;;;;;11.55;2.53;;;11.60;87.30;;;;;;5074879;28;20102;-47
2022/10/10 19:41:05;;;;;;;13.45;3.03;;;11.50;87.50;;;;;;5074495;28;20157;-50
2022/10/10 19:43:31;;;;;;;14.10;2.30;;;11.50;87.50;;;;;;5074116;28;20029;-49
2022/10/10 19:45:57;;;;;;;11.10;2.75;;;11.40;87.50;;;;;;5072990;28;20031;-48
2022/10/10 19:48:23;;;;;;;14.10;2.88;;;11.30;87.90;;;;;;5073082;28;20030;-49
2022/10/10 19:50:51;;;;;;;7.80;2.03;;;11.30;88.20;;;;;;5073692;28;20025;-48
2022/10/10 19:53:17;;;;;;;5.65;1.70;;;11.20;88.50;;;;;;5074288;28;20048;-47
2022/10/10 19:55:54;;;;;;;11.10;2.83;;;11.10;88.70;;;;;;5073758;28;20041;-49
2022/10/10 19:58:20;;;;;;;11.20;1.67;;;11.00;89.00;;;;;;5074367;28;20418;-49
2022/10/10 20:00:46;;;;;;;9.95;1.63;;;10.90;89.10;;;;;;5074028;28;20023;-50
2022/10/10 20:03:11;;;;;;;14.05;3.05;;;10.90;89.50;;;;;;5073789;28;20046;-49
2022/10/10 20:05:37;;;;;;;10.43;2.30;;;10.80;89.60;;;;;;5074098;28;20428;-48
2022/10/10 20:08:03;;;;;;;12.60;2.17;;;10.70;89.80;;;;;;5073709;28;20388;-51
2022/10/10 20:10:28;;;;;;;15.32;2.30;;;10.80;90.10;;;;;;5073549;28;20029;-49
2022/10/10 20:12:54;;;;;;;14.20;2.33;;;10.70;90.20;;;;;;5073891;28;20024;-48
2022/10/10 20:15:20;;;;;;;10.32;2.83;;;10.60;90.20;;;;;;5073469;28;20070;-48
2022/10/10 20:17:45;;;;;;;8.35;2.42;;;10.60;90.50;;;;;;5073539;28;20028;-48
2022/10/10 20:20:11;;;;;;;10.52;2.35;;;10.50;90.40;;;;;;5072160;28;20013;-48
2022/10/10 20:22:37;;;;;;;15.52;4.28;;;10.40;90.50;;;;;;5073416;28;20482;-47
2022/10/10 20:25:04;;;;;;;10.70;2.38;;;10.40;90.60;;;;;;5073397;28;20078;-48
2022/10/10 20:27:30;;;;;;;14.52;3.20;;;10.30;90.70;;;;;;5073837;28;20028;-50
2022/10/10 20:29:56;;;;;;;16.73;2.83;;;10.30;90.70;;;;;;5073414;28;20408;-51
2022/10/10 20:32:21;;;;;;;16.88;3.15;;;10.20;90.90;;;;;;5074363;28;20077;-50
2022/10/10 20:34:47;;;;;;;13.10;2.35;;;10.20;91.00;;;;;;5073854;28;20025;-48
2022/10/10 20:37:13;;;;;;;14.15;2.15;;;10.10;91.10;;;;;;5073781;28;20016;-49
2022/10/10 20:39:38;;;;;;;20.45;3.53;;;10.10;91.20;;;;;;5073603;28;20017;-50
2022/10/10 20:42:04;;;;;;;6.95;1.77;;;10.10;91.40;;;;;;5074984;28;20016;-49
2022/10/10 20:44:30;;;;;;;6.70;1.85;;;10.00;91.40;;;;;;5075648;28;20027;-48
2022/10/10 20:46:55;;;;;;;8.63;2.58;;;10.00;91.50;;;;;;5074538;28;20345;-50
2022/10/10 20:49:21;;;;;;;13.98;3.13;;;9.90;91.50;;;;;;5073952;28;20107;-51
2022/10/10 20:51:50;;;;;;;9.10;4.05;;;9.80;91.50;;;;;;5074554;28;20052;-51
2022/10/10 20:54:18;;;;;;;10.20;3.25;;;9.80;91.60;;;;;;5074102;28;20028;-50
2022/10/10 20:56:44;;;;;;;10.57;3.30;;;9.80;91.70;;;;;;5073873;28;20032;-49
2022/10/10 20:59:12;;;;;;;9.52;3.25;;;9.80;91.70;;;;;;5074741;28;20029;-50
2022/10/10 21:01:38;;;;;;;20.08;3.97;;;9.80;91.80;;;;;;5074477;28;20023;-51
2022/10/10 21:04:08;;;;;;;22.58;5.22;;;9.80;91.80;;;;;;5074152;28;20107;-51
2022/10/10 21:06:34;;;;;;;15.80;3.40;;;9.80;91.70;;;;;;5073764;28;20033;-47
2022/10/10 21:09:04;;;;;;;16.88;3.53;;;9.70;91.80;;;;;;5073495;28;20429;-49
2022/10/10 21:11:30;;;;;;;9.73;2.42;;;9.70;91.80;;;;;;5072138;28;20024;-48
2022/10/10 21:13:58;;;;;;;6.07;2.85;;;9.60;91.90;;;;;;5073334;28;20051;-50
2022/10/10 21:16:27;;;;;;;13.80;3.63;;;9.60;92.00;;;;;;5073441;28;20035;-48
2022/10/10 21:18:53;;;;;;;21.15;3.28;;;9.60;92.10;;;;;;5073240;28;20032;-49
2022/10/10 21:21:19;;;;;;;14.88;3.55;;;9.60;92.10;;;;;;5071682;28;20031;-48
2022/10/10 21:23:46;;;;;;;6.57;3.45;;;9.50;92.10;;;;;;5072898;28;20024;-52
2022/10/10 21:26:16;;;;;;;13.70;2.88;;;9.50;92.10;;;;;;5073140;28;20031;-51
2022/10/10 21:28:42;;;;;;;14.18;4.70;;;9.40;92.10;;;;;;5073322;28;20537;-51
2022/10/10 21:31:13;;;;;;;9.95;3.63;;;9.30;92.10;;;;;;5072130;28;20161;-49
2022/10/10 21:33:39;;;;;;;5.00;2.75;;;9.30;92.20;;;;;;5071951;28;20438;-49
2022/10/10 21:36:05;;;;;;;8.40;3.53;;;9.30;92.30;;;;;;5072910;28;20099;-48
2022/10/10 21:38:31;;;;;;;16.13;4.18;;;9.20;92.20;;;;;;5073322;28;20021;-48
2022/10/10 21:41:01;;;;;;;10.40;3.80;;;9.20;92.30;;;;;;5072860;28;20354;-50
2022/10/10 21:43:27;;;;;;;14.07;3.83;;;9.20;92.40;;;;;;5076169;28;20210;-49
2022/10/10 21:45:53;;;;;;;6.60;2.92;;;9.10;92.40;;;;;;5076479;28;20099;-49
2022/10/10 21:48:18;;;;;;;12.93;2.90;;;9.10;92.40;;;;;;5076668;28;20020;-49
2022/10/10 21:50:44;;;;;;;16.83;4.47;;;9.00;92.40;;;;;;5075627;28;20033;-48
2022/10/10 21:53:10;;;;;;;9.52;2.97;;;9.10;92.50;;;;;;5076970;28;20029;-49
2022/10/10 21:55:38;;;;;;;14.02;3.42;;;9.00;92.40;;;;;;5076400;28;20090;-48
2022/10/10 21:58:03;;;;;;;9.10;3.15;;;9.00;92.50;;;;;;5076682;28;20044;-47
2022/10/10 22:00:29;;;;;;;11.07;2.90;;;9.00;92.50;;;;;;5076984;28;20031;-47
2022/10/10 22:02:55;;;;;;;11.50;4.13;;;9.00;92.50;;;;;;5076715;28;20161;-48
2022/10/10 22:05:20;;;;;;;11.15;3.90;;;9.10;92.60;;;;;;5076391;28;20392;-48
2022/10/10 22:07:46;;;;;;;17.38;4.47;;;9.00;92.60;;;;;;5076247;28;20031;-49
2022/10/10 22:10:15;;;;;;;13.00;3.50;;;9.00;92.50;;;;;;5076414;28;20124;-48
2022/10/10 22:12:42;;;;;;;10.40;3.50;;;9.00;92.50;;;;;;5076027;28;20056;-48
2022/10/10 22:15:10;;;;;;;10.35;4.53;;;9.00;92.70;;;;;;5074907;28;20084;-48
2022/10/10 22:17:36;;;;;;;10.52;3.30;;;8.90;92.60;;;;;;5076341;28;20020;-48
2022/10/10 22:20:03;;;;;;;12.00;4.80;;;8.90;92.60;;;;;;5075635;28;20032;-48
2022/10/10 22:22:29;;;;;;;11.63;4.22;;;8.90;92.70;;;;;;5075939;28;20415;-48
2022/10/10 22:24:54;;;;;;;10.43;5.88;;;8.90;92.70;;;;;;5074377;28;20023;-48
2022/10/10 22:27:20;;;;;;;12.23;4.57;;;8.80;92.60;;;;;;5075747;28;20024;-49
2022/10/10 22:29:46;;;;;;;15.80;4.82;;;8.80;92.60;;;;;;5075721;28;20036;-48
2022/10/10 22:32:11;;;;;;;12.30;5.72;;;8.80;92.70;;;;;;5075680;28;20032;-49
2022/10/10 22:34:37;;;;;;;10.50;4.93;;;8.80;92.70;;;;;;5075528;28;20025;-48
2022/10/10 22:37:03;;;;;;;14.95;5.10;;;8.80;92.70;;;;;;5075643;28;20025;-48
2022/10/10 22:39:28;;;;;;;13.52;4.47;;;8.70;92.70;;;;;;5075570;28;20029;-47
2022/10/10 22:41:54;;;;;;;13.65;5.47;;;8.60;92.70;;;;;;5075695;28;20029;-49
2022/10/10 22:44:20;;;;;;;13.35;4.80;;;8.60;92.70;;;;;;5075468;28;20078;-48
2022/10/10 22:46:46;;;;;;;20.83;7.10;;;8.60;92.70;;;;;;5075556;28;20078;-48
2022/10/10 22:49:12;;;;;;;15.32;5.65;;;8.50;92.70;;;;;;5075441;28;20103;-50
2022/10/10 22:51:38;;;;;;;23.00;8.43;;;8.50;92.70;;;;;;5075116;28;20476;-47
2022/10/10 22:54:04;;;;;;;22.45;5.22;;;8.40;92.60;;;;;;5075189;28;20415;-54
2022/10/10 22:56:30;;;;;;;15.00;4.85;;;8.30;92.60;;;;;;5074715;28;20045;-48
2022/10/10 22:58:55;;;;;;;15.55;5.65;;;8.30;92.60;;;;;;5075319;28;20457;-48
2022/10/10 23:01:24;;;;;;;12.93;5.13;;;8.30;92.70;;;;;;5073758;28;20098;-48
2022/10/10 23:03:53;;;;;;;18.15;5.50;;;8.30;92.70;;;;;;5075155;28;20376;-48
2022/10/10 23:06:18;;;;;;;12.43;4.95;;;8.30;92.70;;;;;;5075060;28;20464;-49
2022/10/10 23:08:44;;;;;;;16.90;4.97;;;8.30;92.70;;;;;;5074767;28;20035;-48
2022/10/10 23:11:09;;;;;;;11.88;4.93;;;8.30;92.70;;;;;;5074643;28;20032;-50
2022/10/10 23:13:35;;;;;;;12.60;4.82;;;8.30;92.60;;;;;;5074839;28;20025;-50
2022/10/10 23:16:01;;;;;;;6.95;4.45;;;8.20;92.60;;;;;;5073250;28;20033;-49
2022/10/10 23:18:27;;;;;;;10.30;5.47;;;8.30;92.60;;;;;;5074509;28;20570;-47
2022/10/10 23:20:53;;;;;;;17.15;5.40;;;8.20;92.60;;;;;;5074685;28;20027;-50
2022/10/10 23:23:19;;;;;;;12.27;5.40;;;8.20;92.60;;;;;;5074934;28;20456;-48
2022/10/10 23:25:46;;;;;;;15.85;6.45;;;8.20;92.60;;;;;;5073229;28;20127;-47
2022/10/10 23:28:13;;;;;;;10.48;4.80;;;8.20;92.60;;;;;;5074558;28;20025;-48
2022/10/10 23:30:40;;;;;;;15.07;5.50;;;8.10;92.50;;;;;;5074289;28;20157;-51
2022/10/10 23:33:06;;;;;;;16.17;5.53;;;8.10;92.50;;;;;;5074313;28;20070;-47
2022/10/10 23:35:32;;;;;;;11.82;4.85;;;8.10;92.50;;;;;;5074190;28;20032;-48
2022/10/10 23:37:58;;;;;;;21.58;5.55;;;8.10;92.50;;;;;;5074307;28;20526;-49
2022/10/10 23:40:24;;;;;;;13.80;4.82;;;8.10;92.50;;;;;;5072633;28;20032;-51
2022/10/10 23:42:51;;;;;;;13.10;5.00;;;8.10;92.50;;;;;;5074022;28;20059;-48
2022/10/10 23:45:18;;;;;;;10.20;5.15;;;8.10;92.50;;;;;;5073960;28;20408;-48
2022/10/10 23:47:44;;;;;;;6.80;3.60;;;8.10;92.50;;;;;;5073968;28;20032;-47
2022/10/10 23:50:10;;;;;;;15.52;4.68;;;8.00;92.40;;;;;;5074139;28;20095;-50
2022/10/10 23:52:36;;;;;;;16.98;4.82;;;8.00;92.40;;;;;;5074046;28;20024;-48
2022/10/10 23:55:01;;;;;;;12.70;5.95;;;8.00;92.40;;;;;;5072420;28;21930;-47
2022/10/10 23:57:27;;;;;;;13.82;4.70;;;8.00;92.40;;;;;;5073845;28;20104;-48
2022/10/10 23:59:53;;;;;;;9.77;4.90;;;8.00;92.30;;;;;;5072455;28;20051;-49
